createdAt,value
2023-11-28T09:17:54.033Z,98802.13
2023-11-28T09:20:21.948Z,98810.22
2023-11-28T09:22:52.675Z,98817.09
2023-11-28T09:25:20.168Z,98805.88
2023-11-28T09:27:48.831Z,98808.56
2023-11-28T09:30:16.536Z,98818.16
2023-11-28T09:32:44.371Z,98805.31
2023-11-28T09:35:14.135Z,98818.59
2023-11-28T09:37:42.917Z,98821.50
2023-11-28T09:40:10.906Z,98819.78
2023-11-28T09:42:42.095Z,98821.94
2023-11-28T09:45:10.564Z,98807.06
2023-11-28T09:47:39.969Z,98821.41
2023-11-28T09:50:13.573Z,98820.41
2023-11-28T09:52:45.767Z,98822.06
2023-11-28T09:55:15.519Z,98818.97
2023-11-28T09:57:47.103Z,98814.16
2023-11-28T10:00:21.416Z,98837.81
2023-11-28T10:02:53.645Z,98818.75
2023-11-28T10:05:22.394Z,98813.31
2023-11-28T10:07:54.299Z,98808.44
2023-11-28T10:10:24.795Z,98814.31
2023-11-28T10:12:53.309Z,98819.06
2023-11-28T10:15:26.592Z,98800.38
2023-11-28T10:17:54.195Z,98804.78
2023-11-28T10:20:23.032Z,98802.44
2023-11-28T10:22:52.858Z,98794.63
2023-11-28T10:25:26.518Z,98774.94
2023-11-28T10:28:00.139Z,98780.16
2023-11-28T10:30:29.094Z,98766.50
2023-11-28T10:33:01.321Z,98773.19
2023-11-28T10:35:58.062Z,98772.75
2023-11-28T10:38:28.651Z,98766.16
2023-11-28T10:40:56.939Z,98778.00
2023-11-28T10:43:24.425Z,98757.22
2023-11-28T10:45:53.968Z,98752.09
2023-11-28T10:48:21.539Z,98745.03
2023-11-28T10:50:50.076Z,98739.13
2023-11-28T10:53:18.651Z,98739.44
2023-11-28T10:55:51.689Z,98734.59
2023-11-28T10:58:21.078Z,98738.56
2023-11-28T11:00:56.282Z,98743.28
2023-11-28T11:03:24.997Z,98733.91
2023-11-28T11:05:52.592Z,98728.03
2023-11-28T11:08:21.355Z,98734.88
2023-11-28T11:10:49.829Z,98726.16
2023-11-28T11:13:38.762Z,98725.63
2023-11-28T11:16:19.734Z,98740.38
2023-11-28T11:18:51.091Z,98732.72
2023-11-28T11:21:24.348Z,98730.72
2023-11-28T11:23:56.109Z,98735.03
2023-11-28T11:26:38.139Z,98719.66
2023-11-28T11:29:20.822Z,98726.41
2023-11-28T11:31:51.937Z,98722.44
2023-11-28T11:34:36.615Z,98717.41
2023-11-28T11:37:07.298Z,98702.31
2023-11-28T11:39:39.300Z,98701.25
2023-11-28T11:42:13.282Z,98684.81
2023-11-28T11:44:47.627Z,98679.50
2023-11-28T11:47:24.007Z,98693.88
2023-11-28T11:49:52.930Z,98698.50
2023-11-28T11:52:21.811Z,98700.25
2023-11-28T11:54:49.404Z,98697.81
2023-11-28T11:57:17.629Z,98698.44
2023-11-28T11:59:45.673Z,98691.28
2023-11-28T12:02:13.523Z,98690.84
2023-11-28T12:04:43.518Z,98686.66
2023-11-28T12:07:15.569Z,98684.22
2023-11-28T12:09:43.571Z,98687.38
2023-11-28T12:12:14.546Z,98685.88
2023-11-28T12:14:42.488Z,98695.84
2023-11-28T12:17:10.238Z,98689.13
2023-11-28T12:19:37.714Z,98690.22
2023-11-28T12:22:06.665Z,98690.16
2023-11-28T12:59:06.171Z,98680.72
2023-11-28T13:01:34.725Z,98677.56
2023-11-28T13:04:04.074Z,98675.72
2023-11-28T13:06:47.145Z,98672.59
2023-11-28T13:09:20.734Z,98675.56
2023-11-28T13:11:48.170Z,98672.91
2023-11-28T13:14:15.717Z,98673.38
2023-11-28T13:16:52.736Z,98677.66
2023-11-28T13:19:27.401Z,98683.06
2023-11-28T13:21:55.232Z,98678.84
2023-11-28T13:24:22.591Z,98677.72
2023-11-28T13:26:49.916Z,98675.44
2023-11-28T13:29:17.678Z,98677.47
2023-11-28T13:31:45.940Z,98681.03
2023-11-28T13:34:13.761Z,98679.91
2023-11-28T13:36:41.454Z,98683.03
2023-11-28T13:39:08.887Z,98686.88
2023-11-28T13:41:36.588Z,98681.81
2023-11-28T13:44:03.984Z,98684.97
2023-11-28T13:46:36.876Z,98679.25
2023-11-28T13:49:04.313Z,98684.25
2023-11-28T13:51:31.798Z,98691.25
2023-11-28T13:53:59.156Z,98692.44
2023-11-28T13:56:26.563Z,98692.53
2023-11-28T13:58:54.226Z,98695.25
2023-11-28T14:01:23.808Z,98697.94
2023-11-28T14:03:56.730Z,98690.59
2023-11-28T14:06:24.549Z,98693.31
2023-11-28T14:21:07.390Z,98703.28
2023-11-28T14:23:36.604Z,98709.84
2023-11-28T14:26:06.355Z,98725.75
2023-11-28T14:28:34.109Z,98726.47
2023-11-28T14:31:03.713Z,98737.72
2023-11-28T14:33:34.259Z,98746.13
2023-11-28T14:36:02.018Z,98751.91
2023-11-28T14:38:30.239Z,98749.97
2023-11-28T14:41:00.379Z,98757.31
2023-11-28T14:43:28.262Z,98764.75
2023-11-28T14:45:55.926Z,98758.47
2023-11-28T14:48:23.763Z,98759.94
2023-11-28T14:50:51.689Z,98758.00
2023-11-28T14:53:19.445Z,98755.56
2023-11-28T14:55:49.451Z,98761.75
2023-11-28T14:58:17.101Z,98764.03
2023-11-28T15:00:48.500Z,98752.78
2023-11-28T15:03:16.503Z,98758.88
2023-11-28T15:05:45.930Z,98757.22
2023-11-28T15:08:14.321Z,98772.59
2023-11-28T15:10:42.605Z,98776.34
2023-11-28T15:13:12.008Z,98768.84
2023-11-28T15:15:41.644Z,98782.78
2023-11-28T15:18:09.552Z,98779.56
2023-11-28T15:20:37.315Z,98786.09
2023-11-28T15:23:08.596Z,98800.69
2023-11-28T15:25:37.647Z,98798.03
2023-11-28T15:28:05.359Z,98793.97
2023-11-28T15:30:32.979Z,98801.47
2023-11-28T15:33:01.471Z,98809.50
2023-11-28T15:35:29.510Z,98804.31
2023-11-28T15:38:01.939Z,98814.84
2023-11-28T15:40:33.716Z,98816.88
2023-11-28T15:43:04.750Z,98825.59
2023-11-28T15:45:35.558Z,98819.72
2023-11-28T15:48:05.721Z,98825.72
2023-11-28T15:50:34.983Z,98822.69
2023-11-28T15:53:02.863Z,98835.06
2023-11-28T15:55:30.489Z,98842.59
2023-11-28T15:57:58.074Z,98841.50
2023-11-28T16:00:27.133Z,98851.28
2023-11-28T16:02:58.955Z,98856.13
2023-11-28T16:05:27.093Z,98859.50
2023-11-28T16:07:55.288Z,98861.06
2023-11-28T16:10:22.802Z,98867.81
2023-11-28T16:12:51.582Z,98864.91
2023-11-28T16:15:19.528Z,98868.50
2023-11-28T16:17:47.584Z,98865.81
2023-11-28T16:20:15.544Z,98881.88
2023-11-28T16:22:43.302Z,98875.78
2023-11-28T16:25:11.563Z,98880.31
2023-11-28T16:27:39.392Z,98878.44
2023-11-28T16:30:08.144Z,98892.16
2023-11-28T16:32:38.314Z,98897.91
2023-11-28T16:35:06.952Z,98903.44
2023-11-28T16:37:36.912Z,98903.88
2023-11-28T16:40:09.246Z,98912.53
2023-11-28T16:42:38.164Z,98915.09
2023-11-28T16:45:09.382Z,98917.00
2023-11-28T16:47:37.438Z,98925.72
2023-11-28T16:50:05.871Z,98935.03
2023-11-28T16:52:36.864Z,98939.16
2023-11-28T16:55:04.864Z,98935.69
2023-11-28T16:57:35.139Z,98944.88
2023-11-28T17:00:02.789Z,98945.88
2023-11-28T17:02:31.926Z,98949.22
2023-11-28T17:04:59.821Z,98948.75
2023-11-28T17:07:27.471Z,98960.25
2023-11-28T17:09:55.154Z,98955.28
2023-11-28T17:12:26.521Z,98969.66
2023-11-28T17:14:55.027Z,98975.59
2023-11-28T17:17:22.898Z,98980.25
2023-11-28T17:19:51.033Z,98980.56
2023-11-28T17:22:18.795Z,98985.66
2023-11-28T17:24:47.305Z,98990.06
2023-11-28T17:27:16.457Z,98992.13
2023-11-28T17:29:50.568Z,98994.63
2023-11-28T17:32:19.368Z,98995.34
2023-11-28T17:34:47.074Z,99004.06
2023-11-28T17:37:15.004Z,99005.63
2023-11-28T17:39:43.788Z,99005.16
2023-11-28T17:42:11.969Z,99013.44
2023-11-28T17:44:39.800Z,99018.38
2023-11-28T17:47:07.713Z,99017.06
2023-11-28T17:49:36.208Z,99027.22
2023-11-28T17:52:04.338Z,99032.34
2023-11-28T17:54:32.479Z,99039.53
2023-11-28T17:57:04.310Z,99038.78
2023-11-28T17:59:32.190Z,99045.50
2023-11-28T18:02:00.697Z,99049.63
2023-11-28T18:04:28.800Z,99052.16
2023-11-28T18:06:59.520Z,99054.22
2023-11-28T18:09:27.895Z,99070.75
2023-11-28T18:11:55.627Z,99074.88
2023-11-28T18:14:23.819Z,99069.66
2023-11-28T18:16:51.556Z,99073.50
2023-11-28T18:19:20.865Z,99075.75
2023-11-28T18:21:49.018Z,99072.38
2023-11-28T18:24:16.752Z,99073.13
2023-11-28T18:26:44.488Z,99086.91
2023-11-28T18:29:15.468Z,99089.56
2023-11-28T18:31:44.109Z,99094.75
2023-11-28T18:34:12.026Z,99109.03
2023-11-28T18:36:42.485Z,99109.03
2023-11-28T18:39:10.480Z,99118.41
2023-11-28T18:41:39.852Z,99123.81
2023-11-28T18:44:12.270Z,99133.47
2023-11-28T18:46:42.430Z,99135.38
2023-11-28T18:49:10.157Z,99129.19
2023-11-28T18:51:43.255Z,99134.25
2023-11-28T18:54:11.046Z,99134.94
2023-11-28T18:56:40.368Z,99142.69
2023-11-28T18:59:11.071Z,99144.78
2023-11-28T19:01:40.799Z,99145.22
2023-11-28T19:04:08.789Z,99155.59
2023-11-28T19:06:37.030Z,99150.03
2023-11-28T19:09:05.089Z,99162.28
2023-11-28T19:11:32.841Z,99157.06
2023-11-28T19:14:06.478Z,99166.75
2023-11-28T19:16:35.286Z,99165.78
2023-11-28T19:19:03.325Z,99175.16
2023-11-28T19:21:31.102Z,99178.97
2023-11-28T19:23:59.412Z,99175.94
2023-11-28T19:26:28.326Z,99181.69
2023-11-28T19:28:56.296Z,99192.31
2023-11-28T19:31:24.185Z,99197.69
2023-11-28T19:33:51.925Z,99208.03
2023-11-28T19:36:19.773Z,99205.97
2023-11-28T19:38:50.752Z,99209.78
2023-11-28T19:41:20.072Z,99217.41
2023-11-28T19:43:48.133Z,99222.31
2023-11-28T19:46:16.312Z,99216.13
2023-11-28T19:48:44.728Z,99227.41
2023-11-28T19:51:16.527Z,99229.47
2023-11-28T19:53:44.929Z,99237.56
2023-11-28T19:56:12.770Z,99244.84
2023-11-28T19:58:43.282Z,99242.63
2023-11-28T20:01:11.417Z,99248.97
2023-11-28T20:03:47.629Z,99254.06
2023-11-28T20:06:17.415Z,99253.88
2023-11-28T20:08:48.867Z,99260.69
2023-11-28T20:11:16.678Z,99259.09
2023-11-28T20:13:45.552Z,99266.38
2023-11-28T20:16:13.561Z,99272.44
2023-11-28T20:18:42.139Z,99270.81
2023-11-28T20:21:10.251Z,99278.13
2023-11-28T20:23:39.131Z,99288.56
2023-11-28T20:26:07.676Z,99287.78
2023-11-28T20:28:36.141Z,99299.97
2023-11-28T20:31:04.931Z,99311.69
2023-11-28T20:33:32.945Z,99302.38
2023-11-28T20:36:03.746Z,99307.25
2023-11-28T20:38:31.560Z,99314.06
2023-11-28T20:40:59.403Z,99309.44
2023-11-28T20:43:27.188Z,99309.28
2023-11-28T20:45:58.518Z,99313.09
2023-11-28T20:48:27.025Z,99320.69
2023-11-28T20:50:58.085Z,99327.09
2023-11-28T20:53:26.941Z,99331.44
2023-11-28T20:55:54.881Z,99331.91
2023-11-28T20:58:24.184Z,99339.22
2023-11-28T21:00:52.011Z,99341.25
2023-11-28T21:03:23.398Z,99345.69
2023-11-28T21:05:51.446Z,99346.94
2023-11-28T21:08:24.025Z,99348.03
2023-11-28T21:10:51.921Z,99353.25
2023-11-28T21:13:22.101Z,99360.53
2023-11-28T21:15:49.999Z,99364.31
2023-11-28T21:18:17.834Z,99375.69
2023-11-28T21:20:46.204Z,99367.28
2023-11-28T21:23:14.732Z,99387.34
2023-11-28T21:25:43.409Z,99395.41
2023-11-28T21:28:12.780Z,99398.94
2023-11-28T21:30:40.625Z,99397.31
2023-11-28T21:33:08.265Z,99394.47
2023-11-28T21:35:41.544Z,99400.94
2023-11-28T21:38:10.150Z,99405.50
2023-11-28T21:40:44.012Z,99413.44
2023-11-28T21:43:18.144Z,99417.19
2023-11-28T21:45:46.630Z,99420.53
2023-11-28T21:48:22.171Z,99432.50
2023-11-28T21:50:53.852Z,99431.66
2023-11-28T21:53:22.231Z,99434.22
2023-11-28T21:55:50.012Z,99434.22
2023-11-28T21:58:17.798Z,99444.34
2023-11-28T22:00:46.093Z,99454.03
2023-11-28T22:03:14.448Z,99456.72
2023-11-28T22:05:44.615Z,99455.13
2023-11-28T22:08:12.392Z,99459.59
2023-11-28T22:10:40.411Z,99469.28
2023-11-28T22:13:08.044Z,99471.56
2023-11-28T22:15:35.974Z,99468.88
2023-11-28T22:18:05.056Z,99473.41
2023-11-28T22:20:35.985Z,99482.19
2023-11-28T22:23:04.052Z,99485.06
2023-11-28T22:25:32.628Z,99484.28
2023-11-28T22:28:00.378Z,99486.47
2023-11-28T22:30:28.084Z,99487.75
2023-11-28T22:32:55.813Z,99493.75
2023-11-28T22:35:23.487Z,99503.84
2023-11-28T22:37:51.363Z,99508.78
2023-11-28T22:40:20.822Z,99507.00
2023-11-28T22:42:48.584Z,99502.22
2023-11-28T22:45:17.127Z,99502.63
2023-11-28T22:47:45.708Z,99507.09
2023-11-28T22:50:13.591Z,99510.28
2023-11-28T22:52:41.257Z,99518.47
2023-11-28T22:55:09.340Z,99524.75
2023-11-28T22:57:37.229Z,99535.69
2023-11-28T23:00:14.323Z,99536.97
2023-11-28T23:02:42.247Z,99542.16
2023-11-28T23:05:13.813Z,99552.94
2023-11-28T23:07:41.953Z,99543.28
2023-11-28T23:10:10.214Z,99545.44
2023-11-28T23:12:41.126Z,99546.06
2023-11-28T23:15:09.524Z,99554.31
2023-11-28T23:17:37.325Z,99559.63
2023-11-28T23:20:06.881Z,99561.44
2023-11-28T23:22:40.331Z,99565.69
2023-11-28T23:25:13.054Z,99559.81
2023-11-28T23:27:40.664Z,99564.59
2023-11-28T23:30:08.928Z,99568.78
2023-11-28T23:32:37.321Z,99570.38
2023-11-28T23:35:05.539Z,99563.44
2023-11-28T23:37:33.181Z,99566.38
2023-11-28T23:40:04.309Z,99568.81
2023-11-28T23:42:37.579Z,99571.97
2023-11-28T23:45:09.243Z,99580.84
2023-11-28T23:47:37.065Z,99579.72
2023-11-28T23:50:05.974Z,99580.03
2023-11-28T23:52:33.745Z,99580.94
2023-11-28T23:55:01.662Z,99579.94
2023-11-28T23:57:29.399Z,99582.13
2023-11-28T23:59:57.078Z,99585.63
